Data Viewer
| City | State | Eastern Time | Source | 1 Hour Temp Max | 1 Hour Temp Min | 1 Hour Dew Point Max | 1 Hour Dew Point Min | 1 Hour RH Max | 1 Hour RH Min | 1 Hour BP Max | 1 Hour BP Min | 1 Hour Precip | 1 Hour Wind Max | 1 Hour Wind Max Dir |
|---|---|---|---|---|---|---|---|---|---|---|---|---|---|---|
| Egg Harbor Twp. | NJ | 2026-05-02 19:00 | Mesonet | 59 | 58 | 41 | 37 | 52 | 45 | 29.84 | 29.83 | 0.00 | 5 | ENE |
| Egg Harbor Twp. | NJ | 2026-05-03 08:00 | Mesonet | 46 | 45 | 38 | 36 | 75 | 67 | 29.92 | 29.89 | 0.00 | 10 | NW |
| Egg Harbor Twp. | NJ | 2026-05-03 17:00 | Mesonet | 60 | 59 | 32 | 27 | 35 | 29 | 29.91 | 29.89 | 0.00 | 21 | WNW |
| Egg Harbor Twp. | NJ | 2026-05-03 16:00 | Mesonet | 60 | 57 | 32 | 28 | 36 | 30 | 29.92 | 29.89 | 0.00 | 21 | NNW |
| Egg Harbor Twp. | NJ | 2026-05-03 15:00 | Mesonet | 59 | 55 | 33 | 29 | 40 | 33 | 29.92 | 29.91 | 0.00 | 19 | N |
| Egg Harbor Twp. | NJ | 2026-05-03 14:00 | Mesonet | 57 | 55 | 33 | 28 | 42 | 34 | 29.93 | 29.91 | 0.00 | 17 | NNE |
| Egg Harbor Twp. | NJ | 2026-05-03 13:00 | Mesonet | 56 | 52 | 33 | 28 | 45 | 35 | 29.93 | 29.91 | 0.00 | 21 | NW |
| Egg Harbor Twp. | NJ | 2026-05-03 12:00 | Mesonet | 56 | 51 | 34 | 30 | 49 | 40 | 29.94 | 29.92 | 0.00 | 17 | NW |
| Egg Harbor Twp. | NJ | 2026-05-03 11:00 | Mesonet | 54 | 50 | 35 | 30 | 52 | 44 | 29.95 | 29.93 | 0.00 | 16 | N |
| Egg Harbor Twp. | NJ | 2026-05-03 10:00 | Mesonet | 52 | 48 | 35 | 31 | 58 | 47 | 29.94 | 29.92 | 0.00 | 17 | NW |
| Egg Harbor Twp. | NJ | 2026-05-03 09:00 | Mesonet | 48 | 46 | 36 | 33 | 68 | 55 | 29.93 | 29.91 | 0.00 | 17 | NW |
| Egg Harbor Twp. | NJ | 2026-05-03 07:00 | Mesonet | 45 | 44 | 37 | 36 | 74 | 71 | 29.89 | 29.87 | 0.00 | 9 | NW |
| Egg Harbor Twp. | NJ | 2026-05-02 20:00 | Mesonet | 58 | 54 | 49 | 37 | 81 | 45 | 29.84 | 29.83 | 0.00 | 0 | NW |
| Egg Harbor Twp. | NJ | 2026-05-03 06:00 | Mesonet | 45 | 43 | 36 | 35 | 74 | 70 | 29.87 | 29.84 | 0.00 | 11 | NW |
| Egg Harbor Twp. | NJ | 2026-05-03 05:00 | Mesonet | 44 | 44 | 35 | 34 | 72 | 68 | 29.84 | 29.84 | 0.00 | 8 | NW |
| Egg Harbor Twp. | NJ | 2026-05-03 04:00 | Mesonet | 47 | 44 | 35 | 34 | 68 | 60 | 29.84 | 29.83 | 0.00 | 4 | NW |
| Egg Harbor Twp. | NJ | 2026-05-03 03:00 | Mesonet | 50 | 47 | 35 | 34 | 60 | 55 | 29.84 | 29.83 | 0.00 | 5 | WSW |
| Egg Harbor Twp. | NJ | 2026-05-03 02:00 | Mesonet | 50 | 50 | 36 | 34 | 58 | 54 | 29.85 | 29.84 | 0.00 | 6 | ESE |
| Egg Harbor Twp. | NJ | 2026-05-03 01:00 | Mesonet | 50 | 49 | 37 | 35 | 63 | 56 | 29.86 | 29.85 | 0.00 | 5 | S |
| Egg Harbor Twp. | NJ | 2026-05-03 00:00 | Mesonet | 50 | 48 | 46 | 36 | 91 | 61 | 29.87 | 29.86 | 0.00 | 3 | ENE |
| Egg Harbor Twp. | NJ | 2026-05-02 23:00 | Mesonet | 49 | 48 | 47 | 46 | 95 | 91 | 29.87 | 29.86 | 0.00 | 0 | NNE |
| Egg Harbor Twp. | NJ | 2026-05-02 22:00 | Mesonet | 50 | 48 | 48 | 47 | 94 | 90 | 29.87 | 29.85 | 0.00 | 0 | NNW |
| Egg Harbor Twp. | NJ | 2026-05-02 21:00 | Mesonet | 54 | 50 | 48 | 47 | 90 | 81 | 29.87 | 29.84 | 0.00 | 0 | NNW |
| Egg Harbor Twp. | NJ | 2026-05-03 18:00 | Mesonet | 60 | 59 | 31 | 27 | 33 | 30 | 29.91 | 29.89 | 0.00 | 24 | NNW |
data collection created in 0.012717962265015 (queried in 0.002247) rendered in: 5.9127807617188E-5

